createdAt,value
2023-04-03T00:00:56.603Z,0.00
2023-04-03T00:01:56.750Z,0.00
2023-04-03T00:02:56.826Z,0.00
2023-04-03T00:03:56.930Z,0.00
2023-04-03T00:04:56.969Z,0.00
2023-04-03T00:05:57.053Z,0.00
2023-04-03T00:06:57.147Z,0.00
2023-04-03T00:07:57.251Z,0.00
2023-04-03T00:08:57.326Z,0.00
2023-04-03T00:09:57.396Z,0.00
2023-04-03T00:10:57.471Z,0.00
2023-04-03T00:11:57.546Z,0.00
2023-04-03T00:12:57.648Z,0.00
2023-04-03T00:13:57.744Z,0.00
2023-04-03T00:14:57.789Z,0.00
2023-04-03T00:15:57.865Z,0.00
2023-04-03T00:16:57.982Z,0.00
2023-04-03T00:17:58.154Z,0.00
2023-04-03T00:18:58.086Z,0.00
2023-04-03T00:19:58.185Z,0.00
2023-04-03T00:20:58.248Z,0.00
2023-04-03T00:21:58.347Z,0.00
2023-04-03T00:22:58.450Z,0.00
2023-04-03T00:23:58.535Z,0.00
2023-04-03T00:24:58.600Z,0.00
2023-04-03T00:25:58.675Z,0.00
2023-04-03T00:26:58.753Z,0.00
2023-04-03T00:27:58.862Z,0.00
2023-04-03T00:28:58.897Z,0.00
2023-04-03T00:29:58.981Z,0.00
2023-04-03T00:30:59.056Z,0.00
2023-04-03T00:31:59.147Z,0.00
2023-04-03T00:32:59.297Z,0.00
2023-04-03T00:33:59.330Z,0.00
2023-04-03T00:34:59.404Z,0.00
2023-04-03T00:35:59.649Z,0.00
2023-04-03T00:36:59.651Z,0.00
2023-04-03T00:37:59.697Z,0.00
2023-04-03T00:38:59.741Z,0.00
2023-04-03T00:39:59.817Z,0.00
2023-04-03T00:40:59.891Z,0.00
2023-04-03T00:41:59.996Z,0.00
2023-04-03T00:43:00.138Z,0.00
2023-04-03T00:44:00.154Z,0.00
2023-04-03T00:45:00.218Z,0.00
2023-04-03T00:46:00.417Z,0.00
2023-04-03T00:47:00.390Z,0.00
2023-04-03T00:48:00.680Z,0.00
2023-04-03T00:49:00.577Z,0.00
2023-04-03T00:50:00.669Z,0.00
2023-04-03T00:51:00.722Z,0.00
2023-04-03T00:52:00.853Z,0.00
2023-04-03T00:53:00.916Z,0.00
2023-04-03T00:54:01.006Z,0.00
2023-04-03T00:55:01.068Z,0.00
2023-04-03T00:56:01.153Z,0.00
2023-04-03T00:57:01.244Z,0.00
2023-04-03T00:58:01.332Z,0.00
2023-04-03T00:59:01.405Z,0.00
2023-04-03T01:00:01.483Z,0.00
2023-04-03T01:01:01.555Z,0.00
2023-04-03T01:02:01.703Z,0.00
2023-04-03T01:03:01.760Z,0.00
2023-04-03T01:04:01.850Z,0.00
2023-04-03T01:05:01.906Z,0.00
2023-04-03T01:06:01.986Z,0.00
2023-04-03T01:07:02.047Z,0.00
2023-04-03T01:08:02.186Z,0.00
2023-04-03T01:09:02.278Z,0.00
2023-04-03T01:10:02.397Z,0.00
2023-04-03T01:11:02.413Z,0.00
2023-04-03T01:12:02.497Z,0.00
2023-04-03T01:13:02.611Z,0.00
2023-04-03T01:14:02.701Z,0.00
2023-04-03T01:15:02.775Z,0.00
2023-04-03T01:16:02.909Z,0.00
2023-04-03T01:17:02.958Z,0.00
2023-04-03T01:18:03.117Z,0.00
2023-04-03T01:19:03.121Z,0.00
2023-04-03T01:20:03.210Z,0.00
2023-04-03T01:21:03.300Z,0.00
2023-04-03T01:22:03.378Z,0.00
2023-04-03T01:23:03.497Z,0.00
2023-04-03T01:24:03.533Z,0.00
2023-04-03T01:25:03.612Z,0.00
2023-04-03T01:26:03.701Z,0.00
2023-04-03T01:27:03.780Z,0.00
2023-04-03T01:28:03.903Z,0.00
2023-04-03T01:29:03.936Z,0.00
2023-04-03T01:30:04.037Z,0.00
2023-04-03T01:31:04.160Z,0.00
2023-04-03T01:32:04.205Z,0.00
2023-04-03T01:33:04.420Z,0.00
2023-04-03T01:34:04.380Z,0.00
2023-04-03T01:35:04.442Z,0.00
2023-04-03T01:36:04.544Z,0.00
2023-04-03T01:37:04.603Z,0.00
2023-04-03T01:38:04.691Z,0.00
2023-04-03T01:39:04.739Z,0.00
2023-04-03T01:40:04.812Z,0.00
2023-04-03T01:41:04.921Z,0.00
2023-04-03T01:42:05.010Z,0.00
2023-04-03T01:43:05.122Z,0.00
2023-04-03T01:44:05.244Z,0.00
2023-04-03T01:45:05.284Z,0.00
2023-04-03T01:46:05.432Z,0.00
2023-04-03T01:47:05.437Z,0.00
2023-04-03T01:48:05.545Z,0.00
2023-04-03T01:49:05.589Z,0.00
2023-04-03T01:50:05.650Z,0.00
2023-04-03T01:51:05.768Z,0.00
2023-04-03T01:52:05.835Z,0.00
2023-04-03T01:53:05.981Z,0.00
2023-04-03T01:54:06.052Z,0.00
2023-04-03T01:55:06.119Z,0.00
2023-04-03T01:56:06.189Z,0.00
2023-04-03T01:57:06.324Z,0.00
2023-04-03T01:58:06.355Z,0.00
2023-04-03T01:59:06.457Z,0.00
2023-04-03T02:00:06.502Z,0.00
2023-04-03T02:01:06.580Z,0.00
2023-04-03T02:02:06.663Z,0.00
2023-04-03T02:03:06.825Z,0.00
2023-04-03T02:04:06.892Z,0.00
2023-04-03T02:05:06.918Z,0.00
2023-04-03T02:06:06.982Z,0.00
2023-04-03T02:07:07.090Z,0.00
2023-04-03T02:08:07.189Z,0.00
2023-04-03T02:09:07.250Z,0.00
2023-04-03T02:10:07.314Z,0.00
2023-04-03T02:11:07.381Z,0.00
2023-04-03T02:12:07.438Z,0.00
2023-04-03T02:13:07.555Z,0.00
2023-04-03T02:14:07.605Z,0.00
2023-04-03T02:15:07.681Z,0.00
2023-04-03T02:16:07.761Z,0.00
2023-04-03T02:17:07.814Z,0.00
2023-04-03T02:18:08.052Z,0.00
2023-04-03T02:19:07.984Z,0.00
2023-04-03T02:20:08.046Z,0.00
2023-04-03T02:21:08.156Z,0.00
2023-04-03T02:22:08.209Z,0.00
2023-04-03T02:23:08.296Z,0.00
2023-04-03T02:24:08.362Z,0.00
2023-04-03T02:25:08.432Z,0.00
2023-04-03T02:26:08.492Z,0.00
2023-04-03T02:27:08.584Z,0.00
2023-04-03T02:28:08.661Z,0.00
2023-04-03T02:29:08.745Z,0.00
2023-04-03T02:30:08.821Z,0.00
2023-04-03T02:31:08.881Z,0.00
2023-04-03T02:32:08.925Z,0.00
2023-04-03T02:33:09.016Z,0.00
2023-04-03T02:34:09.075Z,0.00
2023-04-03T02:35:09.152Z,0.00
2023-04-03T02:36:09.206Z,0.00
2023-04-03T02:37:09.279Z,0.00
2023-04-03T02:38:09.366Z,0.00
2023-04-03T02:39:09.453Z,0.00
2023-04-03T02:40:09.502Z,0.00
2023-04-03T02:41:09.582Z,0.00
2023-04-03T02:42:09.632Z,0.00
2023-04-03T02:43:09.718Z,0.00
2023-04-03T02:44:09.779Z,0.00
2023-04-03T02:45:09.851Z,0.00
2023-04-03T02:46:09.975Z,0.00
2023-04-03T02:47:10.011Z,0.00
2023-04-03T02:48:10.118Z,0.00
2023-04-03T02:49:10.148Z,0.00
2023-04-03T02:50:10.242Z,0.00
2023-04-03T02:51:10.276Z,0.00
2023-04-03T02:52:10.350Z,0.00
2023-04-03T02:53:10.440Z,0.00
2023-04-03T02:54:10.514Z,0.00
2023-04-03T02:55:10.588Z,0.00
2023-04-03T02:56:10.665Z,0.00
2023-04-03T02:57:10.770Z,0.00
2023-04-03T02:58:10.827Z,0.00
2023-04-03T02:59:10.885Z,0.00
2023-04-03T03:00:10.958Z,0.00
2023-04-03T03:01:11.087Z,0.00
2023-04-03T03:02:11.148Z,0.00
2023-04-03T03:03:11.221Z,0.00
2023-04-03T03:04:11.280Z,0.00
2023-04-03T03:05:11.368Z,0.00
2023-04-03T03:06:11.420Z,0.00
2023-04-03T03:07:11.494Z,0.00
2023-04-03T03:08:11.583Z,0.00
2023-04-03T03:09:11.649Z,0.00
2023-04-03T03:10:11.710Z,0.00
2023-04-03T03:11:11.782Z,0.00
2023-04-03T03:12:11.848Z,0.00
2023-04-03T03:13:11.921Z,0.00
2023-04-03T03:14:11.997Z,0.00
2023-04-03T03:15:12.053Z,0.00
2023-04-03T03:16:12.140Z,0.00
2023-04-03T03:17:12.180Z,0.00
2023-04-03T03:18:12.264Z,0.00
2023-04-03T03:19:12.334Z,0.00
2023-04-03T03:20:12.433Z,0.00
2023-04-03T03:21:12.473Z,0.00
2023-04-03T03:22:12.559Z,0.00
2023-04-03T03:23:12.632Z,0.00
2023-04-03T03:24:12.695Z,0.00
2023-04-03T03:25:12.759Z,0.00
2023-04-03T03:26:12.831Z,0.00
2023-04-03T03:27:12.900Z,0.00
2023-04-03T03:28:12.989Z,0.00
2023-04-03T03:29:13.042Z,0.00
2023-04-03T03:30:13.119Z,0.00
2023-04-03T03:31:13.245Z,0.00
2023-04-03T03:32:13.272Z,0.00
2023-04-03T03:33:13.358Z,0.00
2023-04-03T03:34:13.429Z,0.00
2023-04-03T03:35:13.501Z,0.00
2023-04-03T03:36:13.591Z,0.00
2023-04-03T03:37:13.622Z,0.00
2023-04-03T03:38:13.709Z,0.00
2023-04-03T03:39:13.776Z,0.00
2023-04-03T03:40:13.857Z,0.00
2023-04-03T03:41:13.911Z,0.00
2023-04-03T03:42:13.993Z,0.00
2023-04-03T03:43:14.081Z,0.00
2023-04-03T03:44:15.460Z,0.00
2023-04-03T03:45:14.238Z,0.00
2023-04-03T03:46:14.333Z,0.00
2023-04-03T03:47:14.381Z,0.00
2023-04-03T03:48:16.170Z,0.00
2023-04-03T03:49:14.544Z,0.00
2023-04-03T03:50:14.663Z,0.00
2023-04-03T03:51:14.711Z,0.00
2023-04-03T03:52:14.792Z,0.00
2023-04-03T03:53:14.861Z,0.00
2023-04-03T03:54:14.979Z,0.00
2023-04-03T03:55:15.029Z,0.00
2023-04-03T03:56:15.102Z,0.00
2023-04-03T03:57:15.236Z,0.00
2023-04-03T03:58:15.270Z,0.00
2023-04-03T03:59:15.359Z,0.00
2023-04-03T04:00:15.432Z,0.00
2023-04-03T04:01:15.491Z,0.00
2023-04-03T04:02:15.647Z,0.00
2023-04-03T04:03:15.772Z,0.00
2023-04-03T04:04:15.817Z,0.00
2023-04-03T04:05:15.804Z,0.00
2023-04-03T04:06:15.901Z,0.00
2023-04-03T04:07:15.940Z,0.00
2023-04-03T04:08:16.031Z,0.00
2023-04-03T04:09:16.093Z,0.00
2023-04-03T04:10:16.155Z,0.00
2023-04-03T04:11:16.230Z,0.00
2023-04-03T04:12:16.309Z,0.00
2023-04-03T04:13:16.373Z,0.00
2023-04-03T04:14:16.485Z,0.00
2023-04-03T04:15:16.555Z,0.00
2023-04-03T04:16:16.672Z,0.00
2023-04-03T04:17:16.746Z,0.00
2023-04-03T04:18:16.832Z,0.00
2023-04-03T04:19:16.921Z,0.00
2023-04-03T04:20:17.001Z,0.00
2023-04-03T04:21:17.065Z,0.00
2023-04-03T04:22:17.144Z,0.00
2023-04-03T04:23:17.227Z,0.00
2023-04-03T04:24:17.531Z,0.00
2023-04-03T04:25:17.375Z,0.00
2023-04-03T04:26:17.467Z,4.00
2023-04-03T04:27:17.552Z,4.00
2023-04-03T04:28:17.641Z,0.00
2023-04-03T04:29:17.982Z,0.00
2023-04-03T04:30:17.828Z,4.00
2023-04-03T04:31:17.921Z,4.00
2023-04-03T04:32:18.016Z,4.00
2023-04-03T04:33:18.090Z,4.00
2023-04-03T04:34:18.195Z,4.00
2023-04-03T04:35:18.284Z,8.00
2023-04-03T04:36:18.447Z,8.00
2023-04-03T04:37:18.430Z,8.00
2023-04-03T04:38:18.551Z,12.00
2023-04-03T04:39:18.646Z,12.00
2023-04-03T04:40:18.701Z,12.00
2023-04-03T04:41:18.790Z,16.00
2023-04-03T04:42:18.874Z,16.00
2023-04-03T04:43:18.943Z,24.00
2023-04-03T04:44:19.056Z,24.00
2023-04-03T04:45:19.134Z,32.00
2023-04-03T04:46:19.271Z,36.00
2023-04-03T04:47:19.273Z,40.00
2023-04-03T04:48:19.399Z,48.00
2023-04-03T04:49:19.436Z,56.00
2023-04-03T04:50:19.502Z,72.00
2023-04-03T04:51:19.583Z,84.00
2023-04-03T04:52:19.670Z,96.00
2023-04-03T04:53:19.747Z,112.00
2023-04-03T04:54:19.873Z,128.00
2023-04-03T04:55:19.914Z,148.00
2023-04-03T04:56:20.017Z,168.00
2023-04-03T04:57:20.102Z,192.00
2023-04-03T04:58:20.189Z,220.00
2023-04-03T04:59:21.918Z,248.00
2023-04-03T05:00:20.351Z,276.00
2023-04-03T05:01:20.496Z,312.00
2023-04-03T05:02:20.545Z,348.00
2023-04-03T05:03:20.589Z,388.00
2023-04-03T05:04:20.726Z,424.00
2023-04-03T05:05:20.760Z,468.00
2023-04-03T05:06:20.853Z,516.00
2023-04-03T05:07:20.935Z,564.00
2023-04-03T05:08:21.034Z,616.00
2023-04-03T05:09:21.112Z,668.00
2023-04-03T05:10:21.193Z,724.00
2023-04-03T05:11:21.244Z,784.00
2023-04-03T05:12:21.335Z,844.00
2023-04-03T05:13:21.400Z,904.00
2023-04-03T05:14:21.532Z,968.00
2023-04-03T05:15:21.602Z,1036.00
2023-04-03T05:16:21.749Z,1104.00
2023-04-03T05:17:21.816Z,1176.00
2023-04-03T05:18:21.853Z,1244.00
2023-04-03T05:19:21.967Z,1312.00
2023-04-03T05:20:22.013Z,1388.00
2023-04-03T05:21:22.084Z,1460.00
2023-04-03T05:22:22.169Z,1536.00
2023-04-03T05:23:22.237Z,1612.00
2023-04-03T05:24:22.395Z,1684.00
2023-04-03T05:25:22.399Z,1760.00
2023-04-03T05:26:22.488Z,1836.00
2023-04-03T05:27:22.570Z,1912.00
2023-04-03T05:28:22.657Z,1988.00
2023-04-03T05:29:22.750Z,2064.00
2023-04-03T05:30:22.821Z,2144.00
2023-04-03T05:31:22.932Z,2216.00
2023-04-03T05:32:23.028Z,2288.00
2023-04-03T05:33:23.100Z,2360.00
2023-04-03T05:34:23.569Z,2436.00
2023-04-03T05:35:23.259Z,2508.00
2023-04-03T05:36:23.424Z,2580.00
2023-04-03T05:37:23.434Z,2660.00
2023-04-03T05:38:23.474Z,2728.00
2023-04-03T05:39:24.001Z,2804.00
2023-04-03T05:40:23.639Z,2876.00
2023-04-03T05:41:23.731Z,2952.00
2023-04-03T05:42:23.793Z,3028.00
2023-04-03T05:43:23.899Z,3100.00
2023-04-03T05:44:23.971Z,3176.00
2023-04-03T05:45:24.230Z,3244.00
2023-04-03T05:46:24.155Z,3312.00
2023-04-03T05:47:24.200Z,3376.00
2023-04-03T05:48:24.293Z,3448.00
2023-04-03T05:49:24.370Z,3512.00
2023-04-03T05:50:24.611Z,3584.00
2023-04-03T05:51:24.529Z,3652.00
2023-04-03T05:52:24.600Z,3720.00
2023-04-03T05:53:24.691Z,3780.00
2023-04-03T05:54:24.794Z,3848.00
2023-04-03T05:55:24.893Z,3908.00
2023-04-03T05:56:24.926Z,3968.00
2023-04-03T05:57:25.041Z,4036.00
2023-04-03T05:58:25.105Z,4096.00
2023-04-03T05:59:25.194Z,4156.00
2023-04-03T06:00:25.261Z,4220.00
2023-04-03T06:01:25.388Z,4284.00
2023-04-03T06:02:25.459Z,4348.00
2023-04-03T06:03:25.679Z,4412.00
2023-04-03T06:04:25.677Z,4476.00
2023-04-03T06:05:25.696Z,4540.00
2023-04-03T06:06:25.773Z,4596.00
2023-04-03T06:07:25.872Z,4656.00
2023-04-03T06:08:25.933Z,4708.00
2023-04-03T06:09:26.062Z,4764.00
2023-04-03T06:10:26.115Z,4812.00
2023-04-03T06:11:26.224Z,4868.00
2023-04-03T06:12:26.297Z,4924.00
2023-04-03T06:13:26.404Z,4976.00
2023-04-03T06:14:26.467Z,5032.00
2023-04-03T06:15:26.591Z,5080.00
2023-04-03T06:16:26.699Z,5136.00
2023-04-03T06:17:26.785Z,5176.00
2023-04-03T06:18:26.852Z,5228.00
2023-04-03T06:19:26.953Z,5276.00
2023-04-03T06:20:27.061Z,5324.00
2023-04-03T06:21:27.108Z,5360.00
2023-04-03T06:22:27.182Z,5404.00
2023-04-03T06:23:27.288Z,5444.00
2023-04-03T06:24:27.411Z,5484.00
2023-04-03T06:25:27.507Z,5528.00
2023-04-03T06:26:27.537Z,5568.00
2023-04-03T06:27:27.608Z,5616.00
2023-04-03T06:28:28.316Z,5656.00
2023-04-03T06:29:27.758Z,5696.00
2023-04-03T06:30:27.859Z,5736.00
2023-04-03T06:31:28.011Z,5776.00
2023-04-03T06:32:28.056Z,5816.00
2023-04-03T06:33:28.122Z,5856.00
2023-04-03T06:34:28.182Z,5892.00
2023-04-03T06:35:28.294Z,5928.00
2023-04-03T06:36:28.323Z,5968.00
2023-04-03T06:37:28.397Z,6008.00
2023-04-03T06:38:28.462Z,6052.00
2023-04-03T06:39:28.570Z,6096.00
2023-04-03T06:40:28.648Z,6140.00
2023-04-03T06:41:28.712Z,6188.00
2023-04-03T06:42:28.761Z,6236.00
2023-04-03T06:43:28.851Z,6292.00
2023-04-03T06:44:28.942Z,6360.00
2023-04-03T06:45:29.053Z,6448.00
2023-04-03T06:46:29.137Z,9440.00
2023-04-03T06:47:29.261Z,50752.00
2023-04-03T06:48:29.297Z,76320.00
2023-04-03T06:49:29.399Z,73152.00
2023-04-03T06:50:29.485Z,71008.00
2023-04-03T06:51:29.560Z,71648.00
2023-04-03T06:52:29.642Z,70176.00
2023-04-03T06:53:29.729Z,69248.00
2023-04-03T06:54:29.783Z,69152.00
2023-04-03T06:55:29.889Z,69184.00
2023-04-03T06:56:29.948Z,71712.00
2023-04-03T06:57:30.057Z,72448.00
2023-04-03T06:58:30.092Z,80544.00
2023-04-03T06:59:30.192Z,81760.00
2023-04-03T07:00:30.279Z,83008.00
2023-04-03T07:01:30.378Z,84384.00
2023-04-03T07:02:30.442Z,84736.00
2023-04-03T07:03:30.524Z,84832.00
2023-04-03T07:04:30.639Z,84864.00
2023-04-03T07:05:30.702Z,86112.00
2023-04-03T07:06:30.837Z,84512.00
2023-04-03T07:07:30.845Z,85440.00
2023-04-03T07:08:30.905Z,88832.00
2023-04-03T07:09:30.966Z,87680.00
2023-04-03T07:10:31.070Z,82176.00
2023-04-03T07:11:31.143Z,79456.00
2023-04-03T07:12:31.218Z,76128.00
2023-04-03T07:13:31.296Z,77440.00
2023-04-03T07:14:31.343Z,75424.00
2023-04-03T07:15:31.447Z,77984.00
2023-04-03T07:16:31.647Z,78656.00
2023-04-03T07:17:31.601Z,78784.00
2023-04-03T07:18:31.651Z,79520.00
2023-04-03T07:19:31.843Z,81056.00
2023-04-03T07:20:31.856Z,81088.00
2023-04-03T07:21:31.933Z,81696.00
2023-04-03T07:22:32.234Z,86400.00
2023-04-03T07:23:32.074Z,89024.00
2023-04-03T07:24:32.154Z,91072.00
2023-04-03T07:25:32.258Z,91968.00
2023-04-03T07:26:32.327Z,91008.00
2023-04-03T07:27:32.367Z,85664.00
2023-04-03T07:28:32.428Z,89312.00
2023-04-03T07:29:32.521Z,90528.00
2023-04-03T07:30:32.657Z,86944.00
2023-04-03T07:31:32.725Z,89792.00
2023-04-03T07:32:32.813Z,94144.00
2023-04-03T07:33:32.880Z,93312.00
2023-04-03T07:34:32.966Z,93184.00
2023-04-03T07:35:33.076Z,94432.00
2023-04-03T07:36:33.129Z,92032.00
2023-04-03T07:37:33.227Z,91424.00
2023-04-03T07:38:33.298Z,93792.00
2023-04-03T07:39:33.376Z,89472.00
2023-04-03T07:40:33.478Z,89632.00
2023-04-03T07:41:33.544Z,85632.00
2023-04-03T07:42:33.623Z,87136.00
2023-04-03T07:43:33.698Z,86304.00
2023-04-03T07:44:33.765Z,85760.00
2023-04-03T07:45:33.924Z,83232.00
2023-04-03T07:46:33.939Z,83008.00
2023-04-03T07:47:34.001Z,82368.00
2023-04-03T07:48:34.042Z,84160.00
2023-04-03T07:49:34.161Z,84928.00
2023-04-03T07:50:34.234Z,90336.00
2023-04-03T07:51:34.305Z,91648.00
2023-04-03T07:52:34.361Z,94528.00
2023-04-03T07:53:34.466Z,92512.00
2023-04-03T07:54:34.546Z,90784.00
2023-04-03T07:55:35.061Z,91296.00
2023-04-03T07:56:34.711Z,87520.00
2023-04-03T07:57:34.848Z,84832.00
2023-04-03T07:58:34.883Z,85600.00
2023-04-03T07:59:34.956Z,88832.00
2023-04-03T08:00:35.039Z,90656.00
2023-04-03T08:01:35.078Z,95072.00
2023-04-03T08:02:35.218Z,96128.00
2023-04-03T08:03:35.368Z,94528.00
2023-04-03T08:04:35.381Z,92544.00
2023-04-03T08:05:35.597Z,93344.00
2023-04-03T08:06:46.006Z,90944.00
2023-04-03T08:07:35.551Z,89440.00
2023-04-03T08:08:35.603Z,89856.00
2023-04-03T08:09:35.696Z,90976.00
2023-04-03T08:10:35.813Z,91648.00
2023-04-03T08:11:35.877Z,93632.00
2023-04-03T08:12:35.929Z,93568.00
2023-04-03T08:13:36.002Z,94752.00
2023-04-03T08:14:36.058Z,94912.00
2023-04-03T08:15:36.465Z,95616.00
2023-04-03T08:16:36.287Z,92928.00
2023-04-03T08:17:36.350Z,89664.00
2023-04-03T08:18:36.396Z,85952.00
2023-04-03T08:19:36.502Z,81920.00
2023-04-03T08:20:36.589Z,80160.00
2023-04-03T08:21:36.647Z,79264.00
2023-04-03T08:22:36.751Z,77760.00
2023-04-03T08:23:36.841Z,77152.00
2023-04-03T08:24:39.101Z,75936.00
2023-04-03T08:25:37.108Z,76448.00
2023-04-03T08:26:37.048Z,77952.00
2023-04-03T08:27:37.154Z,80192.00
2023-04-03T08:28:37.212Z,82048.00
2023-04-03T08:29:37.294Z,80896.00
2023-04-03T08:30:37.448Z,79680.00
2023-04-03T08:31:37.460Z,80608.00
2023-04-03T08:32:37.569Z,80160.00
2023-04-03T08:33:37.619Z,78880.00
2023-04-03T08:34:37.676Z,78816.00
2023-04-03T08:35:38.199Z,79488.00
2023-04-03T08:36:37.848Z,77792.00
2023-04-03T08:37:37.939Z,77280.00
2023-04-03T08:38:38.062Z,77504.00
2023-04-03T08:39:38.126Z,75424.00
2023-04-03T08:40:38.198Z,75328.00
2023-04-03T08:41:38.258Z,74176.00
2023-04-03T08:42:38.349Z,73696.00
2023-04-03T08:43:38.445Z,76192.00
2023-04-03T08:44:38.499Z,77216.00
2023-04-03T08:45:38.848Z,77920.00
2023-04-03T08:46:38.740Z,75424.00
2023-04-03T08:47:38.781Z,73280.00
2023-04-03T08:48:38.820Z,71744.00
2023-04-03T08:49:39.012Z,71008.00
2023-04-03T08:50:39.012Z,70720.00
2023-04-03T08:51:39.070Z,71264.00
2023-04-03T08:52:39.116Z,72096.00
2023-04-03T08:53:39.281Z,71520.00
2023-04-03T08:54:39.289Z,69632.00
2023-04-03T08:55:39.870Z,69760.00
2023-04-03T08:56:39.452Z,71584.00
2023-04-03T08:57:39.532Z,72320.00
2023-04-03T08:58:39.597Z,71840.00
2023-04-03T08:59:39.694Z,67936.00
2023-04-03T09:00:39.795Z,64960.00
2023-04-03T09:01:39.871Z,63040.00
2023-04-03T09:02:39.912Z,62816.00
2023-04-03T09:03:40.005Z,64608.00
2023-04-03T09:04:40.037Z,68416.00
2023-04-03T09:05:40.379Z,70208.00
2023-04-03T09:06:40.374Z,70016.00
2023-04-03T09:07:40.319Z,67488.00
2023-04-03T09:08:40.417Z,68288.00
2023-04-03T09:09:40.486Z,70560.00
2023-04-03T09:10:40.584Z,70368.00
2023-04-03T09:11:40.628Z,71776.00
2023-04-03T09:12:40.715Z,71456.00
2023-04-03T09:13:40.787Z,68032.00
2023-04-03T09:14:40.869Z,66880.00
2023-04-03T09:15:41.012Z,67328.00
2023-04-03T09:16:40.988Z,67456.00
2023-04-03T09:17:41.115Z,66592.00
2023-04-03T09:18:41.167Z,68000.00
2023-04-03T09:19:41.266Z,69056.00
2023-04-03T09:20:41.355Z,69728.00
2023-04-03T09:21:41.393Z,67360.00
2023-04-03T09:22:45.635Z,69088.00
2023-04-03T09:23:41.561Z,69760.00
2023-04-03T09:24:41.630Z,57664.00
2023-04-03T09:25:41.748Z,64640.00
2023-04-03T09:26:41.801Z,62368.00
2023-04-03T09:27:41.941Z,60928.00
2023-04-03T09:28:49.200Z,60960.00
2023-04-03T09:29:42.077Z,61632.00
2023-04-03T09:30:42.169Z,63296.00
2023-04-03T09:31:42.495Z,64352.00
2023-04-03T09:32:42.319Z,10532.00
2023-04-03T09:33:42.378Z,67168.00
2023-04-03T09:34:42.427Z,65952.00
2023-04-03T09:35:48.252Z,65984.00
2023-04-03T09:36:42.577Z,64544.00
2023-04-03T09:37:42.651Z,63680.00
2023-04-03T09:38:42.715Z,61344.00
2023-04-03T09:39:42.816Z,60768.00
2023-04-03T09:40:42.900Z,60448.00
2023-04-03T09:41:42.960Z,63360.00
2023-04-03T09:42:46.212Z,64928.00
2023-04-03T09:43:43.148Z,64480.00
2023-04-03T09:44:43.204Z,62400.00
2023-04-03T09:45:43.309Z,61536.00
2023-04-03T09:46:43.427Z,61696.00
2023-04-03T09:47:43.579Z,60512.00
2023-04-03T09:48:43.558Z,58464.00
2023-04-03T09:49:43.642Z,57312.00
2023-04-03T09:50:43.715Z,58752.00
2023-04-03T09:51:43.770Z,50624.00
2023-04-03T09:52:43.844Z,49536.00
2023-04-03T09:53:43.912Z,19296.00
2023-04-03T09:54:43.989Z,58144.00
2023-04-03T09:55:44.057Z,56000.00
2023-04-03T09:56:44.117Z,55776.00
2023-04-03T09:57:44.189Z,54752.00
2023-04-03T09:58:50.303Z,47616.00
2023-04-03T09:59:44.316Z,58112.00
2023-04-03T10:00:44.500Z,58432.00
2023-04-03T10:01:44.487Z,54912.00
2023-04-03T10:02:44.624Z,53856.00
2023-04-03T10:03:44.657Z,50688.00
2023-04-03T10:04:45.912Z,48640.00
2023-04-03T10:05:44.830Z,47264.00
2023-04-03T10:06:44.912Z,46112.00
2023-04-03T10:07:54.478Z,45376.00
2023-04-03T10:08:45.118Z,45920.00
2023-04-03T10:09:45.189Z,45024.00
2023-04-03T10:10:45.298Z,44096.00
2023-04-03T10:11:45.345Z,42592.00
2023-04-03T10:12:45.454Z,42528.00
2023-04-03T10:13:51.004Z,42016.00
2023-04-03T10:14:45.604Z,42784.00
2023-04-03T10:15:45.657Z,42880.00
2023-04-03T10:16:45.755Z,42560.00
2023-04-03T10:17:45.824Z,42784.00
2023-04-03T10:18:45.905Z,41824.00
2023-04-03T10:19:45.959Z,40672.00
2023-04-03T10:20:46.076Z,39552.00
2023-04-03T10:21:46.133Z,38880.00
2023-04-03T10:22:46.221Z,38432.00
2023-04-03T10:23:46.294Z,38112.00
2023-04-03T10:24:46.372Z,36992.00
2023-04-03T10:25:46.477Z,36224.00
2023-04-03T10:26:46.533Z,35328.00
2023-04-03T10:27:46.585Z,34496.00
2023-04-03T10:28:46.684Z,33728.00
2023-04-03T10:29:46.740Z,32384.00
2023-04-03T10:30:46.915Z,31168.00
2023-04-03T10:31:46.913Z,30944.00
2023-04-03T10:32:47.046Z,29952.00
2023-04-03T10:33:47.090Z,29088.00
2023-04-03T10:34:58.518Z,28480.00
2023-04-03T10:35:47.327Z,27712.00
2023-04-03T10:36:47.378Z,27776.00
2023-04-03T10:37:47.431Z,27456.00
2023-04-03T10:38:47.530Z,26528.00
2023-04-03T10:39:47.603Z,26016.00
2023-04-03T10:40:47.685Z,25344.00
2023-04-03T10:41:47.737Z,24704.00
2023-04-03T10:42:47.840Z,23744.00
2023-04-03T10:43:47.896Z,23040.00
2023-04-03T10:44:47.994Z,22496.00
2023-04-03T10:45:48.097Z,22336.00
2023-04-03T10:46:48.152Z,21696.00
2023-04-03T10:47:48.270Z,20768.00
2023-04-03T10:48:48.321Z,20128.00
2023-04-03T10:49:57.096Z,19424.00
2023-04-03T10:50:48.533Z,18912.00
2023-04-03T10:51:48.571Z,18208.00
2023-04-03T10:52:48.645Z,16416.00
2023-04-03T10:53:48.708Z,12576.00
2023-04-03T10:54:48.791Z,9404.00
2023-04-03T10:55:48.888Z,7880.00
2023-04-03T10:56:53.118Z,7416.00
2023-04-03T10:57:49.061Z,7236.00
2023-04-03T10:58:49.139Z,7144.00
2023-04-03T10:59:49.216Z,7072.00
2023-04-03T11:00:49.290Z,7008.00
2023-04-03T11:01:49.435Z,6972.00
2023-04-03T11:02:49.512Z,6952.00
2023-04-03T11:03:49.693Z,6932.00
2023-04-03T11:04:49.600Z,6912.00
2023-04-03T11:05:49.673Z,6900.00
2023-04-03T11:06:49.744Z,6880.00
2023-04-03T11:07:49.800Z,6860.00
2023-04-03T11:08:49.910Z,6848.00
2023-04-03T11:09:49.990Z,6820.00
2023-04-03T11:10:50.110Z,6804.00
2023-04-03T11:11:50.149Z,6780.00
2023-04-03T11:12:50.240Z,6752.00
2023-04-03T11:13:50.312Z,6748.00
2023-04-03T11:14:50.414Z,6728.00
2023-04-03T11:15:50.554Z,6716.00
2023-04-03T11:16:54.375Z,6692.00
2023-04-03T11:17:50.716Z,6668.00
2023-04-03T11:18:50.786Z,6648.00
2023-04-03T11:19:50.840Z,6620.00
2023-04-03T11:20:50.984Z,6600.00
2023-04-03T11:21:51.033Z,6584.00
2023-04-03T11:22:51.130Z,6560.00
2023-04-03T11:23:51.211Z,6540.00
2023-04-03T11:24:51.273Z,6512.00
2023-04-03T11:25:51.345Z,6492.00
2023-04-03T11:26:51.432Z,6476.00
2023-04-03T11:27:51.519Z,6448.00
2023-04-03T11:28:51.630Z,6428.00
2023-04-03T11:29:51.711Z,6412.00
2023-04-03T11:30:53.616Z,6392.00
2023-04-03T11:31:51.878Z,6368.00
2023-04-03T11:32:51.982Z,6336.00
2023-04-03T11:33:52.031Z,6300.00
2023-04-03T11:34:52.122Z,6264.00
2023-04-03T11:35:52.244Z,6232.00
2023-04-03T11:36:52.290Z,6204.00
2023-04-03T11:37:52.350Z,6164.00
2023-04-03T11:38:54.041Z,6140.00
2023-04-03T11:39:52.556Z,6108.00
2023-04-03T11:40:52.627Z,6076.00
2023-04-03T11:42:00.206Z,6048.00
2023-04-03T11:42:52.801Z,6020.00
2023-04-03T11:43:52.868Z,5988.00
2023-04-03T11:44:52.962Z,5968.00
2023-04-03T11:45:53.065Z,5940.00
2023-04-03T11:46:55.662Z,5904.00
2023-04-03T11:47:53.220Z,5888.00
2023-04-03T11:48:53.276Z,5872.00
2023-04-03T11:49:53.343Z,5844.00
2023-04-03T11:50:53.431Z,5824.00
2023-04-03T11:51:53.479Z,5800.00
2023-04-03T11:52:53.570Z,5784.00
2023-04-03T11:53:53.650Z,5764.00
2023-04-03T11:54:53.751Z,5748.00
2023-04-03T11:55:53.843Z,5728.00
2023-04-03T11:56:53.921Z,5716.00
2023-04-03T11:57:53.950Z,5704.00
2023-04-03T11:58:54.025Z,5696.00
2023-04-03T11:59:54.128Z,5696.00
2023-04-03T12:00:54.234Z,5692.00
2023-04-03T12:01:54.353Z,5692.00
2023-04-03T12:02:55.081Z,5680.00
2023-04-03T12:03:54.467Z,5672.00
2023-04-03T12:04:54.485Z,5660.00
2023-04-03T12:05:54.564Z,5660.00
2023-04-03T12:06:54.621Z,5644.00
2023-04-03T12:07:54.711Z,5632.00
2023-04-03T12:08:54.790Z,5624.00
2023-04-03T12:09:54.874Z,5620.00
2023-04-03T12:10:55.130Z,5604.00
2023-04-03T12:11:55.060Z,5588.00
2023-04-03T12:12:55.152Z,5576.00
2023-04-03T12:13:55.230Z,5560.00
2023-04-03T12:14:55.322Z,5548.00
2023-04-03T12:15:55.450Z,5540.00
2023-04-03T12:16:55.559Z,5532.00
2023-04-03T12:17:55.596Z,5520.00
2023-04-03T12:18:55.686Z,5508.00
2023-04-03T12:19:55.750Z,5492.00
2023-04-03T12:20:55.882Z,5476.00
2023-04-03T12:21:55.919Z,5468.00
2023-04-03T12:22:56.014Z,5464.00
2023-04-03T12:23:56.075Z,5456.00
2023-04-03T12:24:56.181Z,5452.00
2023-04-03T12:25:56.285Z,5448.00
2023-04-03T12:26:56.355Z,5448.00